Time;durP1;ratioP1;P1;durP2;ratioP2;P2;SDS_P1;SDS_P2;PMS_P1;PMS_P2;Temp;Humidity;BMP_temperature;BMP_pressure;BME280_temperature;BME280_humidity;BME280_pressure;Samples;Min_cycle;Max_cycle;Signal;HPM_P1;HPM_P2
2022/11/29 00:00:57;;;;;;;;;;;;;;;4.65;70.91;101108.00;5403107;32;34676;-79
2022/11/29 00:03:59;;;;;;;;;;;;;;;4.84;70.57;101100.12;5418746;32;34933;-62
2022/11/29 00:07:01;;;;;;;;;;;;;;;5.28;69.45;101099.03;5408846;32;44713;-62
2022/11/29 00:10:02;;;;;;;;;;;;;;;5.34;68.57;101098.97;5413517;32;35564;-63
2022/11/29 00:13:04;;;;;;;;;;;;;;;4.86;68.85;101095.75;5405667;32;35347;-62
2022/11/29 00:16:07;;;;;;;;;;;;;;;5.56;67.95;101089.28;5405235;32;34202;-62
2022/11/29 00:19:10;;;;;;;;;;;;;;;4.93;70.32;101095.72;5392930;32;34392;-71
2022/11/29 00:22:12;;;;;;;;;;;;;;;4.24;72.13;101091.59;5400783;32;34870;-62
2022/11/29 00:25:14;;;;;;;;;;;;;;;4.97;69.86;101084.44;5413351;32;34196;-78
2022/11/29 00:28:15;;;;;;;;;;;;;;;5.31;67.73;101082.50;5420456;32;34241;-80
2022/11/29 00:31:21;;;;;;;;;;;;;;;5.52;67.93;101077.13;5413000;32;35296;-78
2022/11/29 00:34:23;;;;;;;;;;;;;;;5.76;66.66;101076.06;5406180;32;35384;-78
2022/11/29 00:37:25;;;;;;;;;;;;;;;3.45;75.55;101076.06;5395615;32;35433;-62
2022/11/29 00:40:27;;;;;;;;;;;;;;;3.67;75.79;101069.12;5421410;32;34306;-62
2022/11/29 00:43:29;;;;;;;;;;;;;;;4.15;73.28;101065.62;5413135;32;34227;-71
2022/11/29 00:46:31;;;;;;;;;;;;;;;4.01;73.75;101075.19;5425136;32;44429;-78
2022/11/29 00:49:32;;;;;;;;;;;;;;;3.62;76.53;101071.75;5395742;32;35333;-79
2022/11/29 00:52:34;;;;;;;;;;;;;;;3.15;78.62;101072.53;5411181;32;34692;-62
2022/11/29 00:55:36;;;;;;;;;;;;;;;4.33;76.15;101062.12;5412416;32;35629;-63
2022/11/29 00:58:38;;;;;;;;;;;;;;;3.41;77.96;101066.50;5412869;32;35024;-61
2022/11/29 01:01:40;;;;;;;;;;;;;;;3.59;76.55;101073.47;5413884;32;34858;-80
2022/11/29 01:04:42;;;;;;;;;;;;;;;3.55;77.77;101070.00;5400444;32;34725;-62
2022/11/29 01:07:44;;;;;;;;;;;;;;;4.17;75.03;101060.41;5440409;32;35641;-79
2022/11/29 01:10:46;;;;;;;;;;;;;;;4.06;75.29;101063.91;5413981;32;34286;-78
2022/11/29 01:13:49;;;;;;;;;;;;;;;3.74;75.60;101063.94;5412884;32;35001;-62
2022/11/29 01:16:50;;;;;;;;;;;;;;;4.75;72.91;101049.78;5417628;32;35047;-78
2022/11/29 01:19:52;;;;;;;;;;;;;;;3.44;76.83;101064.78;5380045;32;34355;-78
2022/11/29 01:22:54;;;;;;;;;;;;;;;3.66;77.01;101062.19;5419304;32;35510;-62
2022/11/29 01:25:57;;;;;;;;;;;;;;;3.91;75.47;101060.44;5398460;32;35510;-62
2022/11/29 01:28:59;;;;;;;;;;;;;;;4.37;74.11;101062.94;5427650;32;34175;-79
2022/11/29 01:32:00;;;;;;;;;;;;;;;3.04;75.84;101063.87;5403237;32;44705;-77
2022/11/29 01:35:03;;;;;;;;;;;;;;;4.02;75.06;101059.56;5416055;32;34168;-78
2022/11/29 01:38:05;;;;;;;;;;;;;;;3.65;75.00;101057.87;5415516;32;34640;-62
2022/11/29 01:41:08;;;;;;;;;;;;;;;3.88;74.58;101061.34;5401497;32;36419;-80
2022/11/29 01:44:12;;;;;;;;;;;;;;;4.47;71.67;101051.66;5420355;32;35571;-79
2022/11/29 01:47:15;;;;;;;;;;;;;;;4.17;71.70;101050.87;5410494;32;34824;-64
2022/11/29 01:50:17;;;;;;;;;;;;;;;4.77;68.75;101050.69;5405039;32;34865;-79
2022/11/29 01:53:19;;;;;;;;;;;;;;;4.23;70.47;101063.00;5390302;32;34484;-69
2022/11/29 01:56:21;;;;;;;;;;;;;;;4.34;70.18;101059.50;5415342;32;34734;-63
2022/11/29 01:59:23;;;;;;;;;;;;;;;4.72;70.53;101048.09;5405316;32;37149;-62
2022/11/29 02:02:33;;;;;;;;;;;;;;;3.71;72.07;101055.25;5397830;32;34810;-62
2022/11/29 02:05:35;;;;;;;;;;;;;;;4.07;73.73;101063.03;5417892;32;44480;-78
2022/11/29 02:08:38;;;;;;;;;;;;;;;3.74;72.65;101057.87;5395797;32;35359;-75
2022/11/29 02:11:43;;;;;;;;;;;;;;;3.44;75.03;101046.59;5427190;32;35702;-78
2022/11/29 02:14:55;;;;;;;;;;;;;;;3.10;75.74;101056.09;5416348;32;34895;-78
2022/11/29 02:18:20;;;;;;;;;;;;;;;3.72;74.25;101068.25;5418419;32;34765;-77
2022/11/29 02:21:25;;;;;;;;;;;;;;;4.59;71.30;101059.41;5403766;32;34968;-78
2022/11/29 02:24:32;;;;;;;;;;;;;;;4.46;69.92;101061.19;5403111;32;34793;-62
2022/11/29 02:27:57;;;;;;;;;;;;;;;3.87;73.05;101066.53;5421529;32;48221;-79
2022/11/29 02:31:14;;;;;;;;;;;;;;;3.53;72.02;101069.12;5404527;32;34103;-63
2022/11/29 02:34:25;;;;;;;;;;;;;;;2.99;76.54;101069.03;5399131;32;34550;-62
2022/11/29 02:37:42;;;;;;;;;;;;;;;4.21;72.32;101076.00;5409896;32;34715;-62
2022/11/29 02:40:48;;;;;;;;;;;;;;;3.36;74.73;101082.13;5390056;32;34810;-79
2022/11/29 02:43:50;;;;;;;;;;;;;;;3.52;74.55;101075.19;5421937;32;35005;-78
2022/11/29 02:47:01;;;;;;;;;;;;;;;3.70;73.85;101076.94;5429308;32;35265;-62
2022/11/29 02:50:03;;;;;;;;;;;;;;;3.35;74.34;101071.69;5406706;32;45138;-62
2022/11/29 02:53:05;;;;;;;;;;;;;;;2.94;76.76;101078.53;5414288;32;34431;-62
2022/11/29 02:56:07;;;;;;;;;;;;;;;3.40;75.61;101076.03;5404195;32;34545;-62
2022/11/29 02:59:28;;;;;;;;;;;;;;;3.69;73.54;101060.47;5425009;32;35620;-79
2022/11/29 03:02:48;;;;;;;;;;;;;;;3.40;74.71;101072.56;5413485;32;34899;-62
2022/11/29 03:05:58;;;;;;;;;;;;;;;3.46;75.55;101081.25;5406787;32;34752;-73
2022/11/29 03:09:03;;;;;;;;;;;;;;;3.25;74.84;101076.91;5407342;32;34577;-62
2022/11/29 03:12:11;;;;;;;;;;;;;;;3.19;75.81;101082.06;5405805;32;46369;-63
2022/11/29 03:15:18;;;;;;;;;;;;;;;3.10;75.38;101073.41;5417053;32;34749;-78
2022/11/29 03:18:20;;;;;;;;;;;;;;;3.74;72.39;101082.16;5396545;32;34612;-62
2022/11/29 03:21:37;;;;;;;;;;;;;;;3.96;72.86;101077.78;5388269;32;35347;-63
2022/11/29 03:24:51;;;;;;;;;;;;;;;3.73;74.34;101084.72;5436025;32;46721;-62
2022/11/29 03:27:55;;;;;;;;;;;;;;;3.26;76.01;101083.81;5424660;32;35385;-63
2022/11/29 03:31:01;;;;;;;;;;;;;;;3.16;76.55;101074.28;5414123;32;34302;-62
2022/11/29 03:34:20;;;;;;;;;;;;;;;3.08;76.68;101075.97;5413454;32;44126;-62
2022/11/29 03:37:24;;;;;;;;;;;;;;;3.98;73.94;101076.03;5399160;32;34509;-64
2022/11/29 03:40:46;;;;;;;;;;;;;;;3.00;77.37;101082.91;5402522;32;35506;-62
2022/11/29 03:44:07;;;;;;;;;;;;;;;3.17;75.91;101086.41;5405572;32;35257;-79
2022/11/29 03:47:13;;;;;;;;;;;;;;;3.56;74.23;101073.47;5438774;32;44752;-62
2022/11/29 03:50:22;;;;;;;;;;;;;;;3.93;73.91;101090.81;5409060;32;35577;-77
2022/11/29 03:53:43;;;;;;;;;;;;;;;4.01;72.22;101086.47;5411047;32;34783;-78
2022/11/29 03:56:45;;;;;;;;;;;;;;;3.25;74.56;101094.22;5419421;32;34833;-62
2022/11/29 03:59:55;;;;;;;;;;;;;;;3.63;74.40;101096.88;5401832;32;35230;-62
2022/11/29 04:03:06;;;;;;;;;;;;;;;3.73;73.57;101095.13;5420036;32;34977;-79
2022/11/29 04:06:22;;;;;;;;;;;;;;;2.84;77.31;101101.91;5405790;32;44811;-79
2022/11/29 04:09:38;;;;;;;;;;;;;;;3.11;77.37;101096.78;5407893;32;34929;-79
2022/11/29 04:12:43;;;;;;;;;;;;;;;3.73;74.48;101095.97;5414904;32;46898;-79
2022/11/29 04:15:51;;;;;;;;;;;;;;;3.45;74.41;101095.09;5402707;32;34937;-78
2022/11/29 04:18:56;;;;;;;;;;;;;;;3.59;73.33;101108.13;5400318;32;34741;-79
2022/11/29 04:22:07;;;;;;;;;;;;;;;3.63;74.09;101109.00;5383818;32;34553;-78
2022/11/29 04:25:35;;;;;;;;;;;;;;;2.73;77.64;101114.81;5390541;32;44585;-78
2022/11/29 04:28:37;;;;;;;;;;;;;;;2.84;77.73;101112.28;5409506;32;46104;-80
2022/11/29 04:31:51;;;;;;;;;;;;;;;3.68;74.95;101115.06;5398584;32;35079;-62
2022/11/29 04:35:11;;;;;;;;;;;;;;;2.28;79.04;101115.44;5411995;32;34692;-78
2022/11/29 04:38:32;;;;;;;;;;;;;;;3.04;78.16;101096.78;5389540;32;35117;-62
2022/11/29 04:42:00;;;;;;;;;;;;;;;3.00;76.28;101111.47;5397213;32;48794;-63
2022/11/29 04:45:21;;;;;;;;;;;;;;;3.21;75.93;101101.13;5388720;32;46661;-61
2022/11/29 04:48:35;;;;;;;;;;;;;;;2.91;77.82;101107.13;5428862;32;35204;-62
2022/11/29 04:51:44;;;;;;;;;;;;;;;2.60;77.35;101126.88;5402430;32;44953;-80
2022/11/29 04:54:57;;;;;;;;;;;;;;;3.02;77.05;101120.12;5416273;32;35054;-63
2022/11/29 04:58:01;;;;;;;;;;;;;;;3.07;76.19;101122.72;5396392;32;35170;-62
2022/11/29 05:01:19;;;;;;;;;;;;;;;2.98;76.32;101134.84;5408682;32;44715;-79
2022/11/29 05:04:50;;;;;;;;;;;;;;;3.51;75.80;101130.66;5402554;32;35445;-78
2022/11/29 05:08:16;;;;;;;;;;;;;;;3.68;71.90;101133.28;5347106;32;34462;-79
2022/11/29 05:11:36;;;;;;;;;;;;;;;3.41;71.86;101141.87;5408058;32;35193;-63
2022/11/29 05:14:57;;;;;;;;;;;;;;;3.08;75.24;101146.09;5411555;32;46107;-78
2022/11/29 05:18:25;;;;;;;;;;;;;;;1.93;79.34;101152.34;5414945;32;34667;-62
2022/11/29 05:21:42;;;;;;;;;;;;;;;1.76;80.16;101151.34;5396494;32;37983;-78
2022/11/29 05:25:10;;;;;;;;;;;;;;;2.31;80.47;101156.94;5408174;32;35471;-63
2022/11/29 05:28:25;;;;;;;;;;;;;;;2.55;80.25;101157.12;5391450;32;34937;-61
2022/11/29 05:31:39;;;;;;;;;;;;;;;2.89;77.45;101150.34;5409495;32;35375;-62
2022/11/29 05:35:00;;;;;;;;;;;;;;;2.85;76.33;101146.03;5402662;32;34980;-62
2022/11/29 05:38:21;;;;;;;;;;;;;;;2.23;79.84;101158.63;5433540;32;44817;-78
2022/11/29 05:41:32;;;;;;;;;;;;;;;2.79;79.55;101153.78;5402126;32;34838;-62
2022/11/29 05:44:57;;;;;;;;;;;;;;;2.61;79.20;101153.69;5408333;32;44289;-61
2022/11/29 05:48:08;;;;;;;;;;;;;;;2.99;78.33;101149.53;5421768;32;34288;-62
2022/11/29 05:51:20;;;;;;;;;;;;;;;3.25;77.54;101149.63;5404238;32;48236;-77
2022/11/29 05:54:25;;;;;;;;;;;;;;;3.62;74.64;101144.53;5408755;32;34257;-80
2022/11/29 05:57:36;;;;;;;;;;;;;;;3.40;75.80;101153.13;5396494;32;35511;-71
2022/11/29 06:00:52;;;;;;;;;;;;;;;3.48;74.47;101141.03;5397396;32;46862;-78
2022/11/29 06:03:54;;;;;;;;;;;;;;;2.81;76.47;101146.00;5410265;32;34664;-62
2022/11/29 06:07:16;;;;;;;;;;;;;;;2.77;77.19;101165.91;5405777;32;34980;-63
2022/11/29 06:10:20;;;;;;;;;;;;;;;3.75;74.20;101161.00;5402971;32;35731;-78
2022/11/29 06:13:41;;;;;;;;;;;;;;;3.60;73.78;101158.38;5395767;32;34897;-78
2022/11/29 06:16:50;;;;;;;;;;;;;;;3.23;75.89;101168.69;5402987;32;35740;-79
2022/11/29 06:19:52;;;;;;;;;;;;;;;3.68;73.64;101170.53;5398130;32;34470;-80
2022/11/29 06:23:12;;;;;;;;;;;;;;;2.92;75.58;101178.94;5396174;32;34990;-78
2022/11/29 06:26:32;;;;;;;;;;;;;;;3.70;74.18;101171.41;5419631;32;34406;-79
2022/11/29 06:29:41;;;;;;;;;;;;;;;4.63;69.92;101170.47;5406048;32;44864;-79
2022/11/29 06:32:53;;;;;;;;;;;;;;;4.36;70.63;101174.00;5392954;32;34830;-79
2022/11/29 06:36:15;;;;;;;;;;;;;;;3.59;73.00;101167.91;5417570;32;35736;-63
2022/11/29 06:39:17;;;;;;;;;;;;;;;3.32;73.78;101173.03;5391975;32;35484;-79
2022/11/29 06:42:18;;;;;;;;;;;;;;;3.13;74.51;101179.91;5410578;32;35225;-64
2022/11/29 06:45:21;;;;;;;;;;;;;;;2.64;77.82;101164.97;5389635;32;35510;-61
2022/11/29 06:48:23;;;;;;;;;;;;;;;2.85;75.83;101177.19;5404724;32;35825;-63
2022/11/29 06:51:44;;;;;;;;;;;;;;;3.02;74.09;101182.44;5403409;32;34620;-62
2022/11/29 06:55:06;;;;;;;;;;;;;;;2.88;77.11;101191.91;5407009;32;34194;-81
2022/11/29 06:58:26;;;;;;;;;;;;;;;3.62;72.95;101175.72;5411028;32;46187;-76
2022/11/29 07:01:57;;;;;;;;;;;;;;;2.87;75.96;101187.56;5407644;32;44314;-73
2022/11/29 07:04:58;;;;;;;;;;;;;;;3.72;75.29;101182.66;5388647;32;35532;-75
2022/11/29 07:08:19;;;;;;;;;;;;;;;3.82;74.21;101183.56;5412659;32;44685;-67
2022/11/29 07:11:23;;;;;;;;;;;;;;;3.93;71.27;101180.94;5407079;32;34705;-80
2022/11/29 07:14:25;;;;;;;;;;;;;;;3.14;75.52;101192.87;5415179;32;35516;-66
2022/11/29 07:17:27;;;;;;;;;;;;;;;3.08;76.74;101192.00;5402720;32;34249;-65
2022/11/29 07:20:48;;;;;;;;;;;;;;;2.82;77.69;101199.66;5374822;32;35258;-69
2022/11/29 07:23:50;;;;;;;;;;;;;;;3.26;75.38;101195.53;5403254;32;34371;-70
2022/11/29 07:27:15;;;;;;;;;;;;;;;3.33;75.57;101199.03;5414178;32;34266;-69
2022/11/29 07:30:22;;;;;;;;;;;;;;;3.86;71.78;101195.66;5409770;32;36211;-63
2022/11/29 07:33:40;;;;;;;;;;;;;;;3.47;73.71;101188.66;5406922;32;36225;-63
2022/11/29 07:36:49;;;;;;;;;;;;;;;3.97;72.92;101193.97;5404969;32;34419;-63
2022/11/29 07:39:54;;;;;;;;;;;;;;;3.84;73.35;101189.63;5427185;32;34296;-62
2022/11/29 07:43:00;;;;;;;;;;;;;;;3.61;73.36;101192.19;5412268;32;34385;-72
2022/11/29 07:46:02;;;;;;;;;;;;;;;3.91;71.79;101199.16;5408788;32;46121;-64
2022/11/29 07:49:04;;;;;;;;;;;;;;;3.38;74.46;101206.84;5421625;32;34895;-67
2022/11/29 07:52:08;;;;;;;;;;;;;;;3.95;71.09;101185.28;5422939;32;35567;-65
2022/11/29 07:55:14;;;;;;;;;;;;;;;3.71;71.38;101196.53;5413970;32;34313;-64
2022/11/29 07:58:19;;;;;;;;;;;;;;;3.77;73.31;101206.94;5423051;32;35797;-66
2022/11/29 08:01:21;;;;;;;;;;;;;;;3.54;73.46;101208.59;5432898;32;36124;-67
2022/11/29 08:04:24;;;;;;;;;;;;;;;3.97;71.67;101203.50;5422716;32;34547;-64
2022/11/29 08:07:26;;;;;;;;;;;;;;;3.51;72.26;101208.62;5421145;32;35608;-72
2022/11/29 08:10:27;;;;;;;;;;;;;;;3.39;72.98;101208.56;5417294;32;34616;-76
2022/11/29 08:13:29;;;;;;;;;;;;;;;2.75;74.58;101203.94;5411983;32;34167;-72
2022/11/29 08:16:32;;;;;;;;;;;;;;;3.58;73.60;101206.91;5425824;32;44827;-71
2022/11/29 08:19:33;;;;;;;;;;;;;;;3.70;71.10;101196.53;5406650;32;34609;-75
2022/11/29 08:22:36;;;;;;;;;;;;;;;3.57;71.28;101198.22;5430140;32;36100;-75
2022/11/29 08:25:40;;;;;;;;;;;;;;;3.25;73.42;101199.00;5420010;32;34375;-64
2022/11/29 08:28:42;;;;;;;;;;;;;;;4.28;70.31;101200.03;5399219;32;34255;-65
2022/11/29 08:31:44;;;;;;;;;;;;;;;3.91;70.62;101201.75;5409759;32;33530;-74
2022/11/29 08:34:46;;;;;;;;;;;;;;;3.34;73.36;101205.09;5399241;32;34233;-74
2022/11/29 08:37:48;;;;;;;;;;;;;;;3.95;70.51;101197.44;5386788;32;34323;-78
2022/11/29 08:40:50;;;;;;;;;;;;;;;2.49;75.71;101218.47;5397421;32;35395;-68
2022/11/29 08:43:52;;;;;;;;;;;;;;;3.17;73.47;101218.03;5426900;32;34753;-67
2022/11/29 08:50:19;;;;;;;;;;;;;;;3.14;71.96;101226.66;5407949;32;35704;-65
2022/11/29 08:53:40;;;;;;;;;;;;;;;3.15;73.02;101218.00;5407203;32;37007;-73
2022/11/29 08:56:44;;;;;;;;;;;;;;;1.83;77.43;101223.97;5380885;32;38438;-72
2022/11/29 09:00:15;;;;;;;;;;;;;;;3.85;70.96;101206.94;5423476;32;44999;-65
2022/11/29 09:06:40;;;;;;;;;;;;;;;3.61;71.05;101209.53;5391380;32;44633;-72
2022/11/29 09:09:43;;;;;;;;;;;;;;;3.39;72.27;101211.16;5428692;32;34306;-73
2022/11/29 09:12:47;;;;;;;;;;;;;;;4.22;69.68;101205.25;5416499;32;34275;-72
2022/11/29 09:15:48;;;;;;;;;;;;;;;3.75;70.30;101197.41;5402477;32;999590;-72
2022/11/29 09:18:54;;;;;;;;;;;;;;;3.85;69.21;101200.88;5407465;32;35459;-72
2022/11/29 09:21:56;;;;;;;;;;;;;;;4.31;68.58;101194.81;5394388;32;35413;-72
2022/11/29 09:24:58;;;;;;;;;;;;;;;3.44;70.51;101201.66;5425971;32;34156;-69
2022/11/29 09:28:01;;;;;;;;;;;;;;;3.88;69.66;101195.69;5418515;32;35337;-72
2022/11/29 09:31:13;;;;;;;;;;;;;;;4.60;67.36;101197.41;5420474;32;44456;-64
2022/11/29 09:34:15;;;;;;;;;;;;;;;3.78;69.41;101190.47;5393451;32;34289;-72
2022/11/29 09:37:17;;;;;;;;;;;;;;;3.69;70.23;101194.81;5416252;32;35742;-72
2022/11/29 09:40:20;;;;;;;;;;;;;;;3.69;70.54;101189.59;5424254;32;35415;-73
2022/11/29 09:43:30;;;;;;;;;;;;;;;3.40;70.51;101198.19;5400107;32;35848;-71
2022/11/29 09:46:32;;;;;;;;;;;;;;;4.33;67.50;101193.09;5406577;32;44748;-71
2022/11/29 09:49:52;;;;;;;;;;;;;;;3.85;68.25;101190.47;5411189;32;34375;-72
2022/11/29 09:53:00;;;;;;;;;;;;;;;3.93;68.55;101193.94;5405033;32;34292;-63
2022/11/29 09:56:37;;;;;;;;;;;;;;;3.71;69.43;101188.72;5395583;32;43452;-64
2022/11/29 09:59:43;;;;;;;;;;;;;;;4.73;65.92;101179.16;5374889;32;45153;-69
2022/11/29 10:02:49;;;;;;;;;;;;;;;3.17;71.58;101185.13;5407307;32;35712;-69
2022/11/29 10:05:56;;;;;;;;;;;;;;;3.75;71.12;101180.06;5391483;32;34341;-74
2022/11/29 10:09:00;;;;;;;;;;;;;;;4.79;67.55;101181.75;5404459;32;34576;-77
2022/11/29 10:12:05;;;;;;;;;;;;;;;4.63;67.42;101170.47;5404374;32;45535;-64
2022/11/29 10:15:12;;;;;;;;;;;;;;;4.56;67.52;101169.63;5402957;32;34236;-65
2022/11/29 10:18:16;;;;;;;;;;;;;;;4.14;68.79;101161.91;5402522;32;35679;-64
2022/11/29 10:21:19;;;;;;;;;;;;;;;4.33;69.94;101154.06;5398957;32;36010;-68
2022/11/29 10:24:21;;;;;;;;;;;;;;;3.63;71.44;101161.00;5414616;32;34432;-69
2022/11/29 10:27:27;;;;;;;;;;;;;;;3.88;69.92;101156.69;5417360;32;36353;-66
2022/11/29 10:30:31;;;;;;;;;;;;;;;3.94;69.79;101154.97;5425562;32;33848;-69
2022/11/29 10:33:34;;;;;;;;;;;;;;;4.88;65.83;101147.84;5395610;32;44919;-71
2022/11/29 10:36:42;;;;;;;;;;;;;;;3.72;69.45;101146.25;5402379;32;34540;-74
2022/11/29 10:39:45;;;;;;;;;;;;;;;4.30;68.50;101148.84;5426732;32;34176;-72
2022/11/29 10:42:47;;;;;;;;;;;;;;;4.84;66.52;101144.41;5410310;32;34298;-71
2022/11/29 10:45:49;;;;;;;;;;;;;;;4.72;68.01;101136.62;5434964;32;34467;-77
2022/11/29 10:48:51;;;;;;;;;;;;;;;4.73;67.16;101145.28;5404296;32;35897;-84
2022/11/29 10:51:53;;;;;;;;;;;;;;;4.23;68.01;101143.66;5403170;32;34593;-73
2022/11/29 10:54:56;;;;;;;;;;;;;;;4.68;68.31;101139.22;5395783;32;34341;-79
2022/11/29 10:58:14;;;;;;;;;;;;;;;5.03;66.17;101131.31;5389090;32;34465;-73
2022/11/29 11:01:16;;;;;;;;;;;;;;;4.14;69.72;101141.94;5424078;32;34450;-80
2022/11/29 11:04:35;;;;;;;;;;;;;;;4.56;67.59;101137.53;5390525;32;36013;-70
2022/11/29 11:07:37;;;;;;;;;;;;;;;5.51;65.02;101126.69;5413611;32;46053;-73
2022/11/29 11:10:40;;;;;;;;;;;;;;;5.48;65.06;101126.72;5392550;32;34357;-72
2022/11/29 11:13:42;;;;;;;;;;;;;;;5.85;63.61;101122.06;5408692;32;33916;-67
2022/11/29 11:16:44;;;;;;;;;;;;;;;4.89;66.21;101128.72;5427187;32;34215;-72
2022/11/29 11:20:07;;;;;;;;;;;;;;;4.97;67.43;101140.00;5400185;32;33367;-71
2022/11/29 11:23:38;;;;;;;;;;;;;;;5.41;65.33;101139.78;5425868;32;44191;-67
2022/11/29 11:26:43;;;;;;;;;;;;;;;4.15;69.15;101135.00;5424577;32;37287;-70
2022/11/29 11:29:45;;;;;;;;;;;;;;;3.72;71.75;101141.06;5415718;32;35883;-76
2022/11/29 11:33:07;;;;;;;;;;;;;;;4.97;67.68;101131.31;5422663;32;35363;-73
2022/11/29 11:36:18;;;;;;;;;;;;;;;4.82;67.39;101124.41;5401471;32;44114;-74
2022/11/29 11:39:21;;;;;;;;;;;;;;;5.13;66.13;101136.44;5405695;32;34443;-76
2022/11/29 11:42:38;;;;;;;;;;;;;;;5.86;63.78;101124.69;5409113;32;34473;-83
2022/11/29 11:45:40;;;;;;;;;;;;;;;5.67;64.62;101130.94;5413491;32;44686;-73
2022/11/29 11:48:42;;;;;;;;;;;;;;;6.08;63.22;101127.16;5406814;32;34530;-75
2022/11/29 11:51:44;;;;;;;;;;;;;;;5.28;66.42;101127.69;5393779;32;35445;-74
2022/11/29 11:54:48;;;;;;;;;;;;;;;5.09;65.09;101128.66;5409554;32;34137;-74
2022/11/29 11:57:58;;;;;;;;;;;;;;;4.82;67.39;101132.22;5387098;32;36470;-74
2022/11/29 12:01:29;;;;;;;;;;;;;;;5.21;66.53;101122.50;5392241;32;44511;-74
2022/11/29 12:04:33;;;;;;;;;;;;;;;5.32;67.13;101128.53;5416711;32;44697;-72
2022/11/29 12:07:39;;;;;;;;;;;;;;;4.82;66.98;101127.03;5415526;32;34660;-72
2022/11/29 12:11:03;;;;;;;;;;;;;;;4.07;70.34;101140.22;5410166;32;44007;-73
2022/11/29 12:14:09;;;;;;;;;;;;;;;4.13;69.66;101132.41;5420408;32;34353;-73
2022/11/29 12:17:30;;;;;;;;;;;;;;;3.94;73.03;101128.09;5417148;32;35157;-82
2022/11/29 12:20:39;;;;;;;;;;;;;;;3.93;70.17;101118.53;5402936;32;43723;-75
2022/11/29 12:23:43;;;;;;;;;;;;;;;3.82;73.25;101125.47;5407297;32;34183;-71
2022/11/29 12:26:45;;;;;;;;;;;;;;;4.54;71.78;101128.84;5419450;32;34569;-79
2022/11/29 12:30:09;;;;;;;;;;;;;;;4.45;69.94;101123.69;5387983;32;47459;-72
2022/11/29 12:33:16;;;;;;;;;;;;;;;4.53;69.26;101125.37;5387926;32;34162;-71
2022/11/29 12:36:30;;;;;;;;;;;;;;;4.62;69.08;101114.94;5409289;32;34307;-73
2022/11/29 12:39:32;;;;;;;;;;;;;;;4.67;70.36;101120.12;5400371;32;44910;-69
2022/11/29 12:42:38;;;;;;;;;;;;;;;4.75;69.28;101112.28;5398595;32;34149;-74
2022/11/29 12:45:40;;;;;;;;;;;;;;;4.35;69.58;101118.47;5412358;32;35100;-69
2022/11/29 12:49:02;;;;;;;;;;;;;;;4.20;71.80;101121.13;5418960;32;37096;-68
2022/11/29 12:52:33;;;;;;;;;;;;;;;4.58;68.86;101112.38;5405855;32;43445;-66
2022/11/29 12:55:53;;;;;;;;;;;;;;;4.78;69.61;101113.16;5402225;32;46083;-70
2022/11/29 12:58:55;;;;;;;;;;;;;;;5.21;68.08;101115.56;5413004;32;34543;-74
2022/11/29 13:02:16;;;;;;;;;;;;;;;4.45;70.35;101111.53;5409136;32;35644;-74
2022/11/29 13:05:18;;;;;;;;;;;;;;;4.45;71.16;101116.75;5413478;32;34401;-71
2022/11/29 13:08:39;;;;;;;;;;;;;;;4.22;70.98;101116.78;5414957;32;34250;-76
2022/11/29 13:11:45;;;;;;;;;;;;;;;4.45;69.60;101119.34;5389480;32;38465;-70
2022/11/29 13:14:48;;;;;;;;;;;;;;;4.29;71.23;101113.28;5396358;32;34230;-72
2022/11/29 13:17:56;;;;;;;;;;;;;;;4.31;71.04;101114.13;5425730;32;35480;-70
2022/11/29 13:21:08;;;;;;;;;;;;;;;4.76;70.74;101107.06;5384715;32;34077;-74
2022/11/29 13:24:10;;;;;;;;;;;;;;;5.82;65.94;101101.25;5415542;32;43500;-76
2022/11/29 13:27:13;;;;;;;;;;;;;;;5.87;65.69;101112.50;5407671;32;34287;-73
2022/11/29 13:30:16;;;;;;;;;;;;;;;5.01;68.64;101114.78;5409064;32;34300;-74
2022/11/29 13:33:24;;;;;;;;;;;;;;;5.67;67.29;101113.53;5417069;32;34343;-66
2022/11/29 13:36:46;;;;;;;;;;;;;;;5.15;67.92;101103.44;5422292;32;35414;-72
2022/11/29 13:40:07;;;;;;;;;;;;;;;4.75;69.43;101118.37;5409243;32;34373;-73
2022/11/29 13:43:09;;;;;;;;;;;;;;;4.75;69.68;101112.28;5411301;32;44643;-74
2022/11/29 13:46:24;;;;;;;;;;;;;;;4.88;70.58;101109.62;5421004;32;34293;-76
2022/11/29 13:49:46;;;;;;;;;;;;;;;4.16;72.23;101115.91;5417685;32;34262;-82
2022/11/29 13:52:48;;;;;;;;;;;;;;;5.52;68.44;101113.62;5388461;32;34354;-73
2022/11/29 13:56:01;;;;;;;;;;;;;;;4.71;69.19;101115.81;5424507;32;34982;-74
2022/11/29 13:59:07;;;;;;;;;;;;;;;4.51;70.92;101121.06;5403280;32;44533;-69
2022/11/29 14:02:28;;;;;;;;;;;;;;;4.93;69.08;101112.22;5415081;32;34170;-72
2022/11/29 14:05:31;;;;;;;;;;;;;;;4.83;69.28;101113.12;5417471;32;36697;-76
2022/11/29 14:08:34;;;;;;;;;;;;;;;5.63;67.15;101116.16;5389294;32;35481;-71
2022/11/29 14:11:59;;;;;;;;;;;;;;;4.84;68.83;101123.56;5424951;32;35778;-73
2022/11/29 14:15:10;;;;;;;;;;;;;;;5.19;69.25;101117.31;5420839;32;43146;-76
2022/11/29 14:18:30;;;;;;;;;;;;;;;5.46;67.86;101118.00;5429207;32;36543;-72
2022/11/29 14:21:51;;;;;;;;;;;;;;;5.36;67.13;101115.47;5400370;32;44537;-75
2022/11/29 14:24:57;;;;;;;;;;;;;;;5.15;67.64;101105.16;5422483;32;35424;-77
2022/11/29 14:28:03;;;;;;;;;;;;;;;4.86;69.61;101116.59;5433370;32;35189;-71
2022/11/29 14:31:06;;;;;;;;;;;;;;;4.60;71.38;101115.81;5411822;32;44904;-72
2022/11/29 14:34:12;;;;;;;;;;;;;;;5.28;69.44;101105.94;5411071;32;35378;-72
2022/11/29 14:37:20;;;;;;;;;;;;;;;5.46;67.84;101105.84;5421140;32;35189;-73
2022/11/29 14:40:27;;;;;;;;;;;;;;;5.59;67.96;101101.41;5394712;32;36437;-73
2022/11/29 14:43:33;;;;;;;;;;;;;;;4.79;69.96;101109.69;5430971;32;34186;-72
2022/11/29 14:46:35;;;;;;;;;;;;;;;5.15;70.02;101108.66;5410856;32;44667;-71
2022/11/29 14:49:38;;;;;;;;;;;;;;;5.21;69.55;101112.94;5435438;32;35344;-73
2022/11/29 14:52:50;;;;;;;;;;;;;;;5.13;69.53;101113.00;5422531;32;34221;-86
2022/11/29 14:55:52;;;;;;;;;;;;;;;4.38;72.08;101116.72;5408548;32;35720;-70
2022/11/29 14:59:12;;;;;;;;;;;;;;;5.71;68.05;101107.41;5417388;32;35574;-75
2022/11/29 15:02:31;;;;;;;;;;;;;;;5.60;68.85;101109.25;5418890;32;34427;-76
2022/11/29 15:05:57;;;;;;;;;;;;;;;5.75;67.38;101108.25;5424970;32;44543;-74
2022/11/29 15:09:03;;;;;;;;;;;;;;;6.24;65.51;101110.44;5402449;32;34408;-70
2022/11/29 15:12:09;;;;;;;;;;;;;;;5.14;69.96;101112.09;5398386;32;45459;-72
2022/11/29 15:15:23;;;;;;;;;;;;;;;5.50;69.11;101114.53;5407948;32;35417;-72
2022/11/29 15:18:37;;;;;;;;;;;;;;;5.46;68.29;101112.81;5401476;32;35598;-74
2022/11/29 15:21:59;;;;;;;;;;;;;;;6.44;65.91;101111.13;5415220;32;44382;-74
2022/11/29 15:25:02;;;;;;;;;;;;;;;6.53;64.94;101104.06;5422614;32;35114;-72
2022/11/29 15:28:04;;;;;;;;;;;;;;;5.38;69.44;101115.47;5400217;32;34201;-76
2022/11/29 15:31:07;;;;;;;;;;;;;;;5.56;68.28;101109.28;5430621;32;34381;-78
2022/11/29 15:34:28;;;;;;;;;;;;;;;6.13;66.07;101094.06;5399686;32;35548;-79
2022/11/29 15:37:29;;;;;;;;;;;;;;;6.14;67.48;101112.28;5427325;32;35904;-78
2022/11/29 15:40:35;;;;;;;;;;;;;;;6.64;64.95;101110.06;5401596;32;44805;-73
2022/11/29 15:43:37;;;;;;;;;;;;;;;5.95;66.75;101113.34;5417170;32;34426;-77
2022/11/29 15:46:39;;;;;;;;;;;;;;;5.68;67.33;101106.56;5418091;32;34912;-74
2022/11/29 15:49:40;;;;;;;;;;;;;;;5.29;70.32;101103.38;5417709;32;35407;-74
2022/11/29 15:52:42;;;;;;;;;;;;;;;4.84;69.94;101117.50;5431905;32;35208;-76
2022/11/29 15:55:45;;;;;;;;;;;;;;;5.10;70.04;101112.16;5418739;32;35176;-76
2022/11/29 15:58:47;;;;;;;;;;;;;;;4.74;72.41;101110.56;5414118;32;33949;-75
2022/11/29 16:01:48;;;;;;;;;;;;;;;5.56;68.68;101112.75;5393285;32;35694;-76
2022/11/29 16:04:51;;;;;;;;;;;;;;;5.95;66.98;101103.75;5418602;32;35485;-77
2022/11/29 16:07:58;;;;;;;;;;;;;;;5.10;69.00;101107.81;5418978;32;34336;-74
2022/11/29 16:11:00;;;;;;;;;;;;;;;4.08;73.87;101126.34;5406349;32;34545;-76
2022/11/29 16:14:17;;;;;;;;;;;;;;;4.48;73.64;101129.75;5409926;32;46452;-76
2022/11/29 16:17:19;;;;;;;;;;;;;;;5.54;68.61;101124.03;5404957;32;35244;-75
2022/11/29 16:20:23;;;;;;;;;;;;;;;4.65;71.84;101134.91;5393143;32;35062;-76
2022/11/29 16:23:31;;;;;;;;;;;;;;;5.73;68.77;101120.41;5401446;32;35445;-76
2022/11/29 16:26:34;;;;;;;;;;;;;;;4.37;73.37;101130.62;5403479;32;45255;-77
2022/11/29 16:29:37;;;;;;;;;;;;;;;4.63;73.37;101123.62;5420533;32;36575;-75